createdAt,value
2022-08-18T00:00:20.084Z,100775.78
2022-08-18T00:02:28.804Z,100783.34
2022-08-18T00:04:45.263Z,100773.28
2022-08-18T00:06:52.931Z,100759.19
2022-08-18T00:08:58.669Z,100770.25
2022-08-18T00:11:02.172Z,100770.94
2022-08-18T00:13:05.642Z,100724.44
2022-08-18T00:15:11.466Z,100774.31
2022-08-18T00:17:15.515Z,100781.63
2022-08-18T00:19:18.927Z,100786.19
2022-08-18T00:21:22.420Z,100782.63
2022-08-18T00:23:25.860Z,100781.75
2022-08-18T00:25:30.709Z,100786.97
2022-08-18T00:27:34.343Z,100779.75
2022-08-18T00:29:37.714Z,100769.06
2022-08-18T00:31:41.150Z,100773.44
2022-08-18T00:33:44.774Z,100768.09
2022-08-18T00:35:48.363Z,100773.38
2022-08-18T00:37:51.844Z,100772.44
2022-08-18T00:39:55.625Z,100766.34
2022-08-18T00:42:00.453Z,100709.16
2022-08-18T00:44:04.763Z,100740.84
2022-08-18T00:46:10.030Z,100760.97
2022-08-18T00:48:15.257Z,100771.59
2022-08-18T00:50:22.653Z,100767.06
2022-08-18T00:52:26.787Z,100762.63
2022-08-18T00:54:33.191Z,100743.38
2022-08-18T00:56:40.740Z,100755.84
2022-08-18T00:58:50.515Z,100747.94
2022-08-18T01:00:54.868Z,100751.53
2022-08-18T01:03:03.899Z,100749.00
2022-08-18T01:05:14.599Z,100751.66
2022-08-18T01:07:23.089Z,100748.22
2022-08-18T01:09:26.611Z,100755.44
2022-08-18T01:11:30.201Z,100759.91
2022-08-18T01:13:36.342Z,100758.13
2022-08-18T01:15:41.280Z,100762.56
2022-08-18T01:18:02.776Z,100759.91
2022-08-18T01:20:26.082Z,100761.56
2022-08-18T01:22:37.873Z,100759.84
2022-08-18T01:25:00.326Z,100763.44
2022-08-18T01:27:03.702Z,100761.72
2022-08-18T01:29:14.171Z,100767.09
2022-08-18T01:31:37.926Z,100765.28
2022-08-18T01:33:44.689Z,100770.59
2022-08-18T01:35:50.263Z,100771.47
2022-08-18T01:37:54.412Z,100768.94
2022-08-18T01:41:25.163Z,100773.28
2022-08-18T01:42:23.074Z,100778.72
2022-08-18T01:44:27.098Z,100783.47
2022-08-18T01:46:33.626Z,100780.78
2022-08-18T01:48:38.444Z,100791.44
2022-08-18T01:50:44.112Z,100797.56
2022-08-18T01:52:48.485Z,100792.25
2022-08-18T01:54:53.224Z,100795.03
2022-08-18T01:56:58.190Z,100797.19
2022-08-18T01:59:01.564Z,100798.41
2022-08-18T02:01:07.231Z,100807.16
2022-08-18T02:03:13.968Z,100802.66
2022-08-18T02:05:21.472Z,100794.66
2022-08-18T02:07:35.945Z,100784.94
2022-08-18T02:09:41.941Z,100789.34
2022-08-18T02:11:45.317Z,100788.44
2022-08-18T02:13:50.141Z,100779.75
2022-08-18T02:15:53.615Z,100779.72
2022-08-18T02:17:57.007Z,100784.13
2022-08-18T02:20:00.453Z,100782.28
2022-08-18T02:22:05.015Z,100789.22
2022-08-18T02:26:13.826Z,100783.91
2022-08-18T02:28:17.704Z,100756.63
2022-08-18T02:30:22.671Z,100772.34
2022-08-18T02:34:32.786Z,100773.31
2022-08-18T02:36:36.223Z,100773.28
2022-08-18T02:38:40.403Z,100775.84
2022-08-18T02:40:46.547Z,100777.94
2022-08-18T02:42:50.037Z,100781.44
2022-08-18T02:44:53.372Z,100771.66
2022-08-18T02:46:58.191Z,100777.81
2022-08-18T02:49:01.896Z,100776.19
2022-08-18T02:51:07.049Z,100774.31
2022-08-18T02:53:10.613Z,100776.97
2022-08-18T02:55:14.641Z,100767.28
2022-08-18T02:57:18.156Z,100756.78
2022-08-18T02:59:25.268Z,100767.28
2022-08-18T03:01:31.621Z,100767.34
2022-08-18T03:03:36.441Z,100769.94
2022-08-18T03:05:40.933Z,100741.84
2022-08-18T03:07:44.618Z,100769.00
2022-08-18T03:09:48.163Z,100772.66
2022-08-18T03:11:51.953Z,100768.41
2022-08-18T03:13:56.371Z,100768.25
2022-08-18T03:15:59.852Z,100776.19
2022-08-18T03:18:03.238Z,100774.47
2022-08-18T03:20:08.780Z,100765.66
2022-08-18T03:22:27.309Z,100768.41
2022-08-18T03:24:33.717Z,100776.53
2022-08-18T03:26:41.646Z,100771.19
2022-08-18T03:28:48.308Z,100769.66
2022-08-18T03:30:51.841Z,100780.31
2022-08-18T03:32:55.244Z,100776.69
2022-08-18T03:34:59.613Z,100773.97
2022-08-18T03:37:04.611Z,100756.44
2022-08-18T03:39:12.269Z,100781.03
2022-08-18T03:41:43.725Z,100772.22
2022-08-18T03:43:51.066Z,100777.72
2022-08-18T03:45:55.512Z,100772.53
2022-08-18T03:48:00.616Z,100779.66
2022-08-18T03:50:04.077Z,100781.44
2022-08-18T03:52:13.412Z,100784.09
2022-08-18T03:54:18.363Z,100786.72
2022-08-18T03:56:23.918Z,100777.09
2022-08-18T03:58:27.535Z,100796.44
2022-08-18T04:00:31.920Z,100793.69
2022-08-18T04:02:35.419Z,100792.78
2022-08-18T04:04:42.981Z,100797.06
2022-08-18T04:06:51.157Z,100776.06
2022-08-18T04:08:57.230Z,100792.72
2022-08-18T04:11:00.721Z,100791.91
2022-08-18T04:13:06.190Z,100795.41
2022-08-18T04:15:12.447Z,100773.53
2022-08-18T04:17:25.014Z,100797.31
2022-08-18T04:19:28.824Z,100794.69
2022-08-18T04:21:33.581Z,100796.44
2022-08-18T04:23:43.688Z,100794.72
2022-08-18T04:25:57.486Z,100794.78
2022-08-18T04:28:03.338Z,100785.94
2022-08-18T04:30:08.478Z,100784.16
2022-08-18T04:32:11.976Z,100788.53
2022-08-18T04:34:17.342Z,100798.19
2022-08-18T04:36:21.044Z,100799.88
2022-08-18T04:38:24.613Z,100812.25
2022-08-18T04:40:28.097Z,100813.09
2022-08-18T04:42:32.984Z,100811.59
2022-08-18T04:44:37.769Z,100816.91
2022-08-18T04:46:43.482Z,100811.53
2022-08-18T04:48:47.725Z,100819.44
2022-08-18T04:50:51.122Z,100819.44
2022-08-18T04:53:12.208Z,100815.06
2022-08-18T04:55:15.562Z,100813.19
2022-08-18T04:57:20.985Z,100814.09
2022-08-18T04:59:25.968Z,100811.41
2022-08-18T05:01:33.188Z,100809.56
2022-08-18T05:03:38.495Z,100817.59
2022-08-18T05:05:53.782Z,100813.19
2022-08-18T05:07:58.009Z,100818.44
2022-08-18T05:10:01.717Z,100819.22
2022-08-18T05:12:07.213Z,100826.41
2022-08-18T05:14:10.810Z,100830.16
2022-08-18T05:16:27.875Z,100831.81
2022-08-18T05:18:32.782Z,100828.19
2022-08-18T05:20:40.633Z,100817.59
2022-08-18T05:22:45.638Z,100835.13
2022-08-18T05:24:49.272Z,100834.31
2022-08-18T05:26:53.459Z,100818.66
2022-08-18T05:29:00.185Z,100832.84
2022-08-18T05:31:23.805Z,100816.88
2022-08-18T05:33:27.208Z,100831.78
2022-08-18T05:35:37.577Z,100831.78
2022-08-18T05:37:54.340Z,100830.03
2022-08-18T05:40:05.202Z,100828.25
2022-08-18T05:42:15.682Z,100818.56
2022-08-18T05:44:22.999Z,100824.66
2022-08-18T05:46:47.783Z,100838.81
2022-08-18T05:48:51.556Z,100788.78
2022-08-18T05:50:56.391Z,100837.91
2022-08-18T05:53:05.455Z,100838.69
2022-08-18T05:55:39.340Z,100831.72
2022-08-18T05:57:51.561Z,100844.19
2022-08-18T05:59:56.113Z,100843.50
2022-08-18T06:02:10.154Z,100848.78
2022-08-18T06:04:27.847Z,100846.16
2022-08-18T06:06:33.968Z,100850.63
2022-08-18T06:08:41.641Z,100847.84
2022-08-18T06:10:48.975Z,100855.50
2022-08-18T06:12:55.387Z,100851.19
2022-08-18T06:15:05.921Z,100856.44
2022-08-18T06:17:23.558Z,100854.59
2022-08-18T06:19:43.263Z,100850.25
2022-08-18T06:21:57.145Z,100855.56
2022-08-18T06:24:09.178Z,100860.00
2022-08-18T06:26:18.410Z,100858.09
2022-08-18T06:28:22.070Z,100865.06
2022-08-18T06:30:37.482Z,100875.75
2022-08-18T06:33:10.551Z,100880.84
2022-08-18T06:35:20.541Z,100880.91
2022-08-18T06:37:32.179Z,100875.84
2022-08-18T06:39:41.774Z,100883.75
2022-08-18T06:41:49.046Z,100881.06
2022-08-18T06:44:01.509Z,100882.72
2022-08-18T06:46:10.010Z,100887.94
2022-08-18T06:48:26.212Z,100884.28
2022-08-18T06:50:35.178Z,100884.31
2022-08-18T06:52:41.022Z,100892.22
2022-08-18T06:54:49.402Z,100883.63
2022-08-18T06:56:57.596Z,100888.94
2022-08-18T06:59:24.103Z,100870.53
2022-08-18T07:01:27.587Z,100889.16
2022-08-18T07:03:46.898Z,100888.25
2022-08-18T07:06:02.124Z,100890.88
2022-08-18T07:08:15.676Z,100885.53
2022-08-18T07:10:35.136Z,100884.53
2022-08-18T07:12:38.566Z,100888.91
2022-08-18T07:14:47.999Z,100865.94
2022-08-18T07:17:00.020Z,100887.97
2022-08-18T07:19:10.042Z,100884.50
2022-08-18T07:21:26.471Z,100876.53
2022-08-18T07:23:34.967Z,100883.53
2022-08-18T07:25:42.278Z,100879.13
2022-08-18T07:27:49.698Z,100870.28
2022-08-18T07:30:06.476Z,100872.09
2022-08-18T07:32:21.296Z,100861.47
2022-08-18T07:34:36.682Z,100854.41
2022-08-18T07:36:47.609Z,100852.66
2022-08-18T07:38:56.999Z,100857.06
2022-08-18T07:41:07.737Z,100865.84
2022-08-18T07:43:18.914Z,100857.97
2022-08-18T07:45:26.608Z,100856.25
2022-08-18T07:47:39.519Z,100872.13
2022-08-18T07:50:13.582Z,100865.94
2022-08-18T07:52:36.534Z,100872.09
2022-08-18T07:54:50.534Z,100874.81
2022-08-18T07:57:04.095Z,100880.06
2022-08-18T07:59:16.997Z,100889.78
2022-08-18T08:01:27.735Z,100888.91
2022-08-18T08:03:42.260Z,100888.00
2022-08-18T08:05:55.785Z,100869.66
2022-08-18T08:08:06.189Z,100887.13
2022-08-18T08:10:26.351Z,100889.75
2022-08-18T08:12:38.469Z,100889.59
2022-08-18T08:14:44.472Z,100888.59
2022-08-18T08:16:51.232Z,100889.47
2022-08-18T08:19:11.494Z,100891.31
2022-08-18T08:21:19.835Z,100896.56
2022-08-18T08:23:30.301Z,100884.34
2022-08-18T08:25:47.362Z,100888.56
2022-08-18T08:28:07.579Z,100899.94
2022-08-18T08:30:15.083Z,100903.50
2022-08-18T08:32:29.890Z,100908.91
2022-08-18T08:34:40.725Z,100904.53
2022-08-18T08:36:48.293Z,100913.31
2022-08-18T08:38:57.746Z,100912.31
2022-08-18T08:41:05.630Z,100912.31
2022-08-18T08:43:14.157Z,100894.75
2022-08-18T08:45:22.680Z,100914.28
2022-08-18T08:47:32.396Z,100915.13
2022-08-18T08:49:40.812Z,100917.66
2022-08-18T08:51:50.532Z,100892.09
2022-08-18T08:54:00.344Z,100921.13
2022-08-18T08:56:09.020Z,100920.16
2022-08-18T08:58:22.394Z,100926.22
2022-08-18T09:00:29.406Z,100919.16
2022-08-18T09:02:50.045Z,100933.19
2022-08-18T09:05:08.015Z,100924.59
2022-08-18T09:07:29.305Z,100913.91
2022-08-18T09:10:08.812Z,100914.78
2022-08-18T09:12:27.974Z,100911.97
2022-08-18T09:14:53.935Z,100907.63
2022-08-18T09:17:17.301Z,100909.19
2022-08-18T09:19:40.622Z,100907.25
2022-08-18T09:21:51.154Z,100900.81
2022-08-18T09:24:07.945Z,100909.56
2022-08-18T09:26:27.797Z,100911.03
2022-08-18T09:28:57.118Z,100906.50
2022-08-18T09:31:19.965Z,100907.22
2022-08-18T09:33:35.248Z,100899.94
2022-08-18T09:36:01.291Z,100888.47
2022-08-18T09:38:43.515Z,100896.31
2022-08-18T09:41:11.359Z,100898.16
2022-08-18T09:43:20.178Z,100900.69
2022-08-18T09:48:29.254Z,100901.06
2022-08-18T09:51:18.783Z,100911.38
2022-08-18T09:53:54.770Z,100899.81
2022-08-18T09:58:54.467Z,100909.63
2022-08-18T10:01:32.135Z,100922.03
2022-08-18T10:03:35.911Z,100915.72
2022-08-18T10:05:39.109Z,100917.44
2022-08-18T10:07:44.262Z,100906.78
2022-08-18T10:10:00.770Z,100914.69
2022-08-18T10:12:34.044Z,100911.84
2022-08-18T10:15:10.834Z,100906.59
2022-08-18T10:17:27.916Z,100906.13
2022-08-18T10:19:49.681Z,100905.75
2022-08-18T10:22:07.734Z,100905.63
2022-08-18T10:24:35.826Z,100898.50
2022-08-18T10:27:09.711Z,100890.84
2022-08-18T10:29:54.734Z,100892.72
2022-08-18T10:32:39.762Z,100893.25
2022-08-18T10:34:52.102Z,100891.13
2022-08-18T10:36:58.879Z,100885.75
2022-08-18T10:39:06.864Z,100892.69
2022-08-18T10:41:19.063Z,100882.94
2022-08-18T10:43:55.973Z,100878.72
2022-08-18T10:48:24.484Z,100883.69
2022-08-18T10:50:35.236Z,100881.66
2022-08-18T10:55:50.594Z,100850.47
2022-08-18T10:58:06.070Z,100824.72
2022-08-18T11:00:13.760Z,100864.44
2022-08-18T11:02:40.350Z,100865.09
2022-08-18T11:04:47.425Z,100864.19
2022-08-18T11:07:08.185Z,100860.06
2022-08-18T11:09:12.784Z,100834.75
2022-08-18T11:11:37.045Z,100855.63
2022-08-18T11:13:57.933Z,100853.44
2022-08-18T11:16:13.710Z,100860.19
2022-08-18T11:18:36.250Z,100861.59
2022-08-18T11:20:47.437Z,100854.19
2022-08-18T11:22:54.287Z,100863.09
2022-08-18T11:24:59.179Z,100866.22
2022-08-18T11:27:15.156Z,100837.63
2022-08-18T11:31:59.432Z,100845.13
2022-08-18T11:34:07.209Z,100843.31
2022-08-18T11:36:10.792Z,100831.81
2022-08-18T11:38:21.110Z,100834.19
2022-08-18T11:43:02.500Z,100822.69
2022-08-18T11:45:15.089Z,100828.03
2022-08-18T11:47:27.421Z,100836.81
2022-08-18T11:49:34.418Z,100834.94
2022-08-18T11:51:41.527Z,100833.56
2022-08-18T11:53:58.617Z,100834.38
2022-08-18T11:56:13.268Z,100831.91
2022-08-18T11:58:39.133Z,100820.44
2022-08-18T12:01:02.988Z,100825.28
2022-08-18T12:03:09.453Z,100821.13
2022-08-18T12:05:14.442Z,100825.03
2022-08-18T12:07:27.715Z,100821.31
2022-08-18T12:10:15.949Z,100823.53
2022-08-18T12:12:06.141Z,100824.94
2022-08-18T12:14:29.738Z,100828.22
2022-08-18T12:16:39.674Z,100827.13
2022-08-18T12:18:43.181Z,100832.97
2022-08-18T12:20:51.355Z,100845.28
2022-08-18T12:22:57.508Z,100852.97
2022-08-18T12:25:01.043Z,100856.09
2022-08-18T12:27:20.874Z,100859.28
2022-08-18T12:29:32.609Z,100865.81
2022-08-18T12:31:42.660Z,100871.66
2022-08-18T12:34:00.932Z,100879.03
2022-08-18T12:36:07.413Z,100894.00
2022-08-18T12:38:13.157Z,100902.13
2022-08-18T12:40:17.982Z,100903.28
2022-08-18T12:42:22.833Z,100893.97
2022-08-18T12:44:27.297Z,100881.56
2022-08-18T12:46:31.881Z,100880.34
2022-08-18T12:48:38.069Z,100865.88
2022-08-18T12:53:08.408Z,100851.72
2022-08-18T12:55:22.162Z,100850.19
2022-08-18T12:57:33.394Z,100838.41
2022-08-18T12:59:52.729Z,100836.00
2022-08-18T13:01:58.462Z,100826.00
2022-08-18T13:04:13.149Z,100819.22
2022-08-18T13:06:17.417Z,100820.66
2022-08-18T13:08:30.108Z,100799.25
2022-08-18T13:10:42.893Z,100822.44
2022-08-18T13:12:49.593Z,100819.66
2022-08-18T13:14:54.777Z,100816.34
2022-08-18T13:16:58.215Z,100820.50
2022-08-18T13:19:02.027Z,100804.44
2022-08-18T13:21:11.198Z,100808.81
2022-08-18T13:23:14.578Z,100792.78
2022-08-18T13:25:32.041Z,100791.91
2022-08-18T13:27:38.262Z,100791.28
2022-08-18T13:29:47.186Z,100785.78
2022-08-18T13:31:58.100Z,100778.53
2022-08-18T13:34:03.779Z,100795.16
2022-08-18T13:36:08.575Z,100795.34
2022-08-18T13:38:18.937Z,100796.75
2022-08-18T13:40:29.477Z,100795.81
2022-08-18T13:42:50.653Z,100786.13
2022-08-18T13:45:24.878Z,100796.47
2022-08-18T13:47:38.262Z,100783.78
2022-08-18T13:49:41.887Z,100784.44
2022-08-18T13:52:03.357Z,100780.03
2022-08-18T13:54:29.634Z,100784.03
2022-08-18T13:56:34.606Z,100783.72
2022-08-18T13:58:39.054Z,100786.63
2022-08-18T14:01:22.634Z,100786.94
2022-08-18T14:03:31.152Z,100785.66
2022-08-18T14:05:51.910Z,100795.59
2022-08-18T14:07:56.243Z,100789.06
2022-08-18T14:10:03.643Z,100797.88
2022-08-18T14:12:23.273Z,100806.16
2022-08-18T14:14:27.940Z,100818.72
2022-08-18T14:16:33.305Z,100815.81
2022-08-18T14:18:36.867Z,100812.06
2022-08-18T14:20:59.927Z,100814.94
2022-08-18T14:23:27.899Z,100802.13
2022-08-18T14:25:54.113Z,100800.88
2022-08-18T14:27:59.943Z,100800.50
2022-08-18T14:30:10.532Z,100811.38
2022-08-18T14:32:18.170Z,100802.34
2022-08-18T14:34:28.535Z,100799.03
2022-08-18T14:36:32.168Z,100786.88
2022-08-18T14:38:38.203Z,100804.13
2022-08-18T14:40:43.400Z,100807.31
2022-08-18T14:42:55.143Z,100805.81
2022-08-18T14:45:17.554Z,100811.13
2022-08-18T14:47:29.934Z,100800.31
2022-08-18T14:49:35.703Z,100795.59
2022-08-18T14:51:46.524Z,100786.16
2022-08-18T14:53:51.355Z,100783.38
2022-08-18T14:55:57.465Z,100793.59
2022-08-18T14:58:02.857Z,100785.50
2022-08-18T15:00:12.751Z,100774.75
2022-08-18T15:02:16.207Z,100779.81
2022-08-18T15:04:19.891Z,100778.13
2022-08-18T15:06:27.085Z,100769.56
2022-08-18T15:08:31.114Z,100774.25
2022-08-18T15:10:35.316Z,100776.72
2022-08-18T15:12:39.828Z,100775.94
2022-08-18T15:14:43.256Z,100778.69
2022-08-18T15:16:49.216Z,100785.22
2022-08-18T15:18:53.137Z,100785.66
2022-08-18T15:21:19.635Z,100775.72
2022-08-18T15:24:19.085Z,100784.78
2022-08-18T15:26:27.414Z,100775.91
2022-08-18T15:28:33.351Z,100775.31
2022-08-18T15:32:49.740Z,100776.91
2022-08-18T15:34:53.481Z,100780.94
2022-08-18T15:36:57.636Z,100773.31
2022-08-18T15:39:12.907Z,100780.50
2022-08-18T15:41:32.976Z,100777.69
2022-08-18T15:43:46.041Z,100757.88
2022-08-18T15:45:58.106Z,100769.41
2022-08-18T15:48:04.182Z,100771.06
2022-08-18T15:50:25.392Z,100764.47
2022-08-18T15:52:29.824Z,100762.50
2022-08-18T15:54:33.230Z,100766.00
2022-08-18T15:56:37.416Z,100760.91
2022-08-18T15:58:47.683Z,100758.81
2022-08-18T16:00:53.095Z,100763.31
2022-08-18T16:02:59.964Z,100771.41
2022-08-18T16:05:09.189Z,100763.16
2022-08-18T16:07:25.078Z,100756.31
2022-08-18T16:09:36.715Z,100760.25
2022-08-18T16:11:41.102Z,100770.47
2022-08-18T16:13:44.557Z,100753.31
2022-08-18T16:15:49.979Z,100758.47
2022-08-18T16:17:56.221Z,100762.28
2022-08-18T16:20:00.035Z,100755.28
2022-08-18T16:22:06.351Z,100751.56
2022-08-18T16:24:10.373Z,100748.38
2022-08-18T16:28:34.796Z,100748.28
2022-08-18T16:30:38.683Z,100748.03
2022-08-18T16:32:42.406Z,100749.22
2022-08-18T16:34:45.782Z,100759.72
2022-08-18T16:36:49.290Z,100749.53
2022-08-18T16:38:54.494Z,100753.38
2022-08-18T16:41:06.910Z,100750.41
2022-08-18T16:43:11.626Z,100750.81
2022-08-18T16:45:15.572Z,100743.19
2022-08-18T16:47:19.024Z,100749.75
2022-08-18T16:49:22.674Z,100744.59
2022-08-18T16:51:28.885Z,100738.63
2022-08-18T16:53:40.387Z,100747.59
2022-08-18T16:55:45.861Z,100740.88
2022-08-18T16:58:06.943Z,100740.28
2022-08-18T17:00:36.244Z,100736.75
2022-08-18T17:02:57.323Z,100737.75
2022-08-18T17:05:02.647Z,100739.22
2022-08-18T17:07:07.637Z,100734.00
2022-08-18T17:10:12.588Z,100735.03
2022-08-18T17:12:16.042Z,100736.00
2022-08-18T17:14:20.028Z,100736.72
2022-08-18T17:16:25.770Z,100741.03
2022-08-18T17:18:30.350Z,100734.13
2022-08-18T17:20:36.055Z,100735.34
2022-08-18T17:22:39.518Z,100722.34
2022-08-18T17:24:46.355Z,100727.59
2022-08-18T17:27:02.415Z,100730.53
2022-08-18T17:29:20.985Z,100716.69
2022-08-18T17:31:25.442Z,100725.34
2022-08-18T17:33:34.910Z,100719.50
2022-08-18T17:35:41.252Z,100725.59
2022-08-18T17:37:49.401Z,100724.72
2022-08-18T17:40:00.406Z,100730.94
2022-08-18T17:42:23.244Z,100722.19
2022-08-18T17:44:31.188Z,100719.41
2022-08-18T17:46:41.249Z,100720.16
2022-08-18T17:48:49.257Z,100730.75
2022-08-18T17:51:14.917Z,100726.16
2022-08-18T17:53:18.472Z,100721.84
2022-08-18T17:55:26.276Z,100721.97
2022-08-18T17:57:34.200Z,100719.56
2022-08-18T17:59:51.783Z,100718.75
2022-08-18T18:02:18.462Z,100716.09
2022-08-18T18:04:32.477Z,100710.97
2022-08-18T18:06:40.881Z,100715.44
2022-08-18T18:08:54.621Z,100715.47
2022-08-18T18:11:11.600Z,100712.00
2022-08-18T18:13:27.036Z,100710.25
2022-08-18T18:15:33.506Z,100708.63
2022-08-18T18:17:39.019Z,100701.53
2022-08-18T18:19:43.067Z,100709.56
2022-08-18T18:22:02.275Z,100711.41
2022-08-18T18:24:16.084Z,100708.78
2022-08-18T18:26:28.329Z,100709.69
2022-08-18T18:28:36.131Z,100715.16
2022-08-18T18:30:39.512Z,100714.34
2022-08-18T18:32:59.165Z,100716.13
2022-08-18T18:35:11.706Z,100716.09
2022-08-18T18:37:27.488Z,100718.03
2022-08-18T18:39:33.129Z,100712.59
2022-08-18T18:41:40.115Z,100723.53
2022-08-18T18:43:48.319Z,100720.66
2022-08-18T18:46:23.313Z,100728.94
2022-08-18T18:48:51.140Z,100726.44
2022-08-18T18:50:58.250Z,100724.75
2022-08-18T18:53:18.093Z,100720.94
2022-08-18T18:55:26.857Z,100715.75
2022-08-18T18:57:39.992Z,100726.44
2022-08-18T18:59:59.109Z,100727.41
2022-08-18T19:02:33.011Z,100720.53
2022-08-18T19:04:40.284Z,100737.53
2022-08-18T19:06:52.021Z,100736.84
2022-08-18T19:09:03.761Z,100733.56
2022-08-18T19:11:15.260Z,100731.97
2022-08-18T19:13:32.384Z,100733.75
2022-08-18T19:15:40.218Z,100736.13
2022-08-18T19:17:47.770Z,100736.84
2022-08-18T19:19:56.121Z,100740.19
2022-08-18T19:22:09.312Z,100733.03
2022-08-18T19:24:18.290Z,100740.09
2022-08-18T19:26:28.312Z,100743.63
2022-08-18T19:29:13.416Z,100743.63
2022-08-18T19:31:06.548Z,100744.72
2022-08-18T19:33:15.810Z,100743.03
2022-08-18T19:35:38.293Z,100740.38
2022-08-18T19:37:55.472Z,100720.13
2022-08-18T19:40:05.328Z,100741.94
2022-08-18T19:42:15.877Z,100743.47
2022-08-18T19:44:35.226Z,100743.84
2022-08-18T19:46:45.283Z,100731.66
2022-08-18T19:48:54.779Z,100742.28
2022-08-18T19:51:05.234Z,100741.97
2022-08-18T19:53:26.559Z,100736.59
2022-08-18T19:55:44.553Z,100746.16
2022-08-18T19:58:03.165Z,100747.50
2022-08-18T20:00:25.322Z,100742.72
2022-08-18T20:02:44.240Z,100750.16
2022-08-18T20:05:06.404Z,100756.25
2022-08-18T20:07:29.315Z,100758.47
2022-08-18T20:09:49.725Z,100754.91
2022-08-18T20:12:14.210Z,100758.44
2022-08-18T20:14:19.974Z,100763.72
2022-08-18T20:16:42.599Z,100756.31
2022-08-18T20:18:51.366Z,100760.66
2022-08-18T20:21:39.863Z,100752.66
2022-08-18T20:24:02.302Z,100751.94
2022-08-18T20:26:06.088Z,100756.38
2022-08-18T20:28:36.316Z,100751.88
2022-08-18T20:30:54.743Z,100756.88
2022-08-18T20:33:19.055Z,100759.56
2022-08-18T20:35:27.039Z,100767.25
2022-08-18T20:37:31.909Z,100764.28
2022-08-18T20:39:46.495Z,100757.50
2022-08-18T20:41:52.095Z,100761.47
2022-08-18T20:44:00.308Z,100766.88
2022-08-18T20:46:32.504Z,100762.28
2022-08-18T20:49:05.818Z,100764.94
2022-08-18T20:51:12.609Z,100766.78
2022-08-18T20:53:36.056Z,100764.78
2022-08-18T20:55:53.004Z,100756.75
2022-08-18T20:58:08.095Z,100768.06
2022-08-18T21:00:23.945Z,100760.22
2022-08-18T21:02:38.344Z,100767.28
2022-08-18T21:04:49.454Z,100762.03
2022-08-18T21:06:54.996Z,100769.41
2022-08-18T21:08:59.449Z,100768.03
2022-08-18T21:11:06.469Z,100771.72
2022-08-18T21:13:09.883Z,100770.81
2022-08-18T21:15:13.536Z,100752.50
2022-08-18T21:17:17.635Z,100762.53
2022-08-18T21:19:23.568Z,100763.44
2022-08-18T21:21:32.686Z,100751.19
2022-08-18T21:23:41.315Z,100756.69
2022-08-18T21:25:53.383Z,100755.81
2022-08-18T21:27:57.426Z,100758.00
2022-08-18T21:30:03.851Z,100752.00
2022-08-18T21:32:11.986Z,100756.56
2022-08-18T21:34:29.059Z,100748.69
2022-08-18T21:36:33.424Z,100753.25
2022-08-18T21:38:38.217Z,100752.25
2022-08-18T21:40:45.404Z,100750.56
2022-08-18T21:42:48.939Z,100761.22
2022-08-18T21:44:54.292Z,100756.88
2022-08-18T21:47:05.532Z,100771.22
2022-08-18T21:49:10.488Z,100770.44
2022-08-18T21:51:21.372Z,100769.53
2022-08-18T21:53:28.470Z,100771.44
2022-08-18T21:55:40.049Z,100762.69
2022-08-18T21:57:59.553Z,100769.78
2022-08-18T22:00:19.904Z,100768.13
2022-08-18T22:02:23.888Z,100774.41
2022-08-18T22:04:32.083Z,100774.50
2022-08-18T22:06:41.304Z,100771.88
2022-08-18T22:08:50.093Z,100778.97
2022-08-18T22:12:00.100Z,100773.47
2022-08-18T22:14:16.717Z,100780.66
2022-08-18T22:16:30.732Z,100781.53
2022-08-18T22:18:36.808Z,100776.19
2022-08-18T22:20:47.090Z,100787.78
2022-08-18T22:23:07.999Z,100779.75
2022-08-18T22:25:13.099Z,100787.91
2022-08-18T22:27:22.172Z,100785.25
2022-08-18T22:29:32.651Z,100780.00
2022-08-18T22:31:38.403Z,100783.69
2022-08-18T22:33:41.978Z,100767.78
2022-08-18T22:35:53.486Z,100774.84
2022-08-18T22:37:56.890Z,100787.19
2022-08-18T22:40:04.324Z,100787.16
2022-08-18T22:42:09.574Z,100788.25
2022-08-18T22:44:14.352Z,100783.88
2022-08-18T22:46:24.164Z,100793.75
2022-08-18T22:48:28.358Z,100787.75
2022-08-18T22:50:32.011Z,100785.34
2022-08-18T22:52:38.962Z,100777.34
2022-08-18T22:54:42.392Z,100794.88
2022-08-18T22:56:53.974Z,100798.50
2022-08-18T22:59:00.267Z,100796.13
2022-08-18T23:01:11.941Z,100791.88
2022-08-18T23:03:15.781Z,100797.13
2022-08-18T23:05:19.392Z,100796.25
2022-08-18T23:07:23.651Z,100802.44
2022-08-18T23:09:30.084Z,100803.53
2022-08-18T23:11:33.472Z,100802.47
2022-08-18T23:13:37.458Z,100805.09
2022-08-18T23:15:46.660Z,100802.53
2022-08-18T23:17:52.014Z,100812.19
2022-08-18T23:19:55.380Z,100809.53
2022-08-18T23:21:59.214Z,100811.38
2022-08-18T23:24:02.641Z,100814.94
2022-08-18T23:26:06.299Z,100817.53
2022-08-18T23:28:10.459Z,100825.69
2022-08-18T23:30:14.085Z,100817.84
2022-08-18T23:32:18.321Z,100824.91
2022-08-18T23:34:24.679Z,100822.19
2022-08-18T23:36:28.204Z,100814.03
2022-08-18T23:38:31.956Z,100811.63
2022-08-18T23:40:36.475Z,100815.19
2022-08-18T23:42:40.153Z,100814.28
2022-08-18T23:44:43.544Z,100816.81
2022-08-18T23:46:47.147Z,100820.38
2022-08-18T23:48:52.636Z,100807.28
2022-08-18T23:51:03.057Z,100797.75
2022-08-18T23:53:08.053Z,100810.16
2022-08-18T23:55:14.203Z,100809.31
2022-08-18T23:57:17.552Z,100806.84
2022-08-18T23:59:22.792Z,100807.56
